sensor_id;sensor_type;location;lat;lon;timestamp;temperature;humidity
9167;DHT22;4618;48.818;9.088;2023-05-28T00:00:52;11.20;1.00
9167;DHT22;4618;48.818;9.088;2023-05-28T00:10:42;11.20;1.00
9167;DHT22;4618;48.818;9.088;2023-05-28T00:13:08;11.20;99.90
9167;DHT22;4618;48.818;9.088;2023-05-28T00:15:33;11.20;99.90
9167;DHT22;4618;48.818;9.088;2023-05-28T00:18:00;11.10;99.90
9167;DHT22;4618;48.818;9.088;2023-05-28T00:20:27;11.10;1.00
9167;DHT22;4618;48.818;9.088;2023-05-28T01:16:42;10.40;1.00
9167;DHT22;4618;48.818;9.088;2023-05-28T01:19:11;10.40;99.90
9167;DHT22;4618;48.818;9.088;2023-05-28T01:21:44;10.20;1.00
9167;DHT22;4618;48.818;9.088;2023-05-28T01:24:12;10.30;1.00
9167;DHT22;4618;48.818;9.088;2023-05-28T01:26:40;10.30;1.00
9167;DHT22;4618;48.818;9.088;2023-05-28T01:34:09;10.00;99.90
9167;DHT22;4618;48.818;9.088;2023-05-28T01:36:38;10.00;99.90
9167;DHT22;4618;48.818;9.088;2023-05-28T01:39:06;9.90;1.00
9167;DHT22;4618;48.818;9.088;2023-05-28T01:56:13;9.70;1.00
9167;DHT22;4618;48.818;9.088;2023-05-28T01:58:39;9.80;1.00
9167;DHT22;4618;48.818;9.088;2023-05-28T02:01:11;9.70;1.00
9167;DHT22;4618;48.818;9.088;2023-05-28T02:03:40;9.70;7.60
9167;DHT22;4618;48.818;9.088;2023-05-28T02:06:05;9.70;1.00
9167;DHT22;4618;48.818;9.088;2023-05-28T02:08:31;9.60;15.60
9167;DHT22;4618;48.818;9.088;2023-05-28T02:10:56;9.50;99.90
9167;DHT22;4618;48.818;9.088;2023-05-28T02:13:22;9.40;99.90
9167;DHT22;4618;48.818;9.088;2023-05-28T02:15:47;9.40;99.90
9167;DHT22;4618;48.818;9.088;2023-05-28T02:18:13;9.30;99.90
9167;DHT22;4618;48.818;9.088;2023-05-28T02:20:41;9.20;1.00
9167;DHT22;4618;48.818;9.088;2023-05-28T02:23:07;9.10;1.00
9167;DHT22;4618;48.818;9.088;2023-05-28T02:25:33;9.00;88.70
9167;DHT22;4618;48.818;9.088;2023-05-28T02:27:58;9.00;99.90
9167;DHT22;4618;48.818;9.088;2023-05-28T02:30:24;8.90;99.90
9167;DHT22;4618;48.818;9.088;2023-05-28T02:32:49;8.90;1.00
9167;DHT22;4618;48.818;9.088;2023-05-28T02:35:15;9.00;1.00
9167;DHT22;4618;48.818;9.088;2023-05-28T02:45:01;8.90;1.00
9167;DHT22;4618;48.818;9.088;2023-05-28T02:47:26;8.90;1.00
9167;DHT22;4618;48.818;9.088;2023-05-28T02:49:52;9.00;1.00
9167;DHT22;4618;48.818;9.088;2023-05-28T02:52:17;9.00;1.00
9167;DHT22;4618;48.818;9.088;2023-05-28T02:54:43;9.10;99.90
9167;DHT22;4618;48.818;9.088;2023-05-28T02:57:08;9.00;99.90
9167;DHT22;4618;48.818;9.088;2023-05-28T02:59:34;9.00;99.90
9167;DHT22;4618;48.818;9.088;2023-05-28T03:01:59;8.90;1.00
9167;DHT22;4618;48.818;9.088;2023-05-28T03:04:25;8.90;1.00
9167;DHT22;4618;48.818;9.088;2023-05-28T03:06:51;8.90;1.00
9167;DHT22;4618;48.818;9.088;2023-05-28T03:09:16;8.90;1.00
9167;DHT22;4618;48.818;9.088;2023-05-28T03:11:42;8.80;1.00
9167;DHT22;4618;48.818;9.088;2023-05-28T03:14:08;8.80;1.00
9167;DHT22;4618;48.818;9.088;2023-05-28T03:16:33;8.70;44.30
9167;DHT22;4618;48.818;9.088;2023-05-28T03:19:02;8.00;99.90
9167;DHT22;4618;48.818;9.088;2023-05-28T03:21:27;8.80;99.90
9167;DHT22;4618;48.818;9.088;2023-05-28T03:23:53;8.70;99.90
9167;DHT22;4618;48.818;9.088;2023-05-28T03:26:19;8.60;99.90
9167;DHT22;4618;48.818;9.088;2023-05-28T03:28:44;8.60;99.90
9167;DHT22;4618;48.818;9.088;2023-05-28T03:38:31;8.40;99.90
9167;DHT22;4618;48.818;9.088;2023-05-28T03:40:57;8.30;99.90
9167;DHT22;4618;48.818;9.088;2023-05-28T03:43:22;8.30;1.00
9167;DHT22;4618;48.818;9.088;2023-05-28T04:02:53;8.40;99.90
9167;DHT22;4618;48.818;9.088;2023-05-28T04:05:18;8.60;12.80
9167;DHT22;4618;48.818;9.088;2023-05-28T04:12:36;8.50;99.90
9167;DHT22;4618;48.818;9.088;2023-05-28T04:15:01;8.60;99.90
9167;DHT22;4618;48.818;9.088;2023-05-28T04:24:49;8.70;1.00
9167;DHT22;4618;48.818;9.088;2023-05-28T04:27:17;8.80;1.00
9167;DHT22;4618;48.818;9.088;2023-05-28T04:29:42;8.80;99.90
9167;DHT22;4618;48.818;9.088;2023-05-28T04:32:09;8.90;99.90
9167;DHT22;4618;48.818;9.088;2023-05-28T04:34:34;8.80;1.00
9167;DHT22;4618;48.818;9.088;2023-05-28T04:37:00;8.80;1.00
9167;DHT22;4618;48.818;9.088;2023-05-28T04:39:25;8.80;1.00
9167;DHT22;4618;48.818;9.088;2023-05-28T04:41:52;8.90;1.00
9167;DHT22;4618;48.818;9.088;2023-05-28T04:44:19;9.10;99.90
9167;DHT22;4618;48.818;9.088;2023-05-28T04:46:45;9.20;99.90
9167;DHT22;4618;48.818;9.088;2023-05-28T04:49:11;9.20;99.90
9167;DHT22;4618;48.818;9.088;2023-05-28T04:51:39;9.20;99.90
9167;DHT22;4618;48.818;9.088;2023-05-28T04:54:05;9.30;99.90
9167;DHT22;4618;48.818;9.088;2023-05-28T04:56:31;9.40;1.00
9167;DHT22;4618;48.818;9.088;2023-05-28T04:58:57;9.50;1.00
9167;DHT22;4618;48.818;9.088;2023-05-28T05:01:22;9.00;1.00
9167;DHT22;4618;48.818;9.088;2023-05-28T05:03:50;9.70;1.00
9167;DHT22;4618;48.818;9.088;2023-05-28T05:06:16;9.80;99.90
9167;DHT22;4618;48.818;9.088;2023-05-28T05:08:41;9.90;1.00
9167;DHT22;4618;48.818;9.088;2023-05-28T05:11:07;10.00;99.90
9167;DHT22;4618;48.818;9.088;2023-05-28T05:13:33;10.20;1.00
9167;DHT22;4618;48.818;9.088;2023-05-28T05:15:59;10.30;1.00
9167;DHT22;4618;48.818;9.088;2023-05-28T05:18:24;10.40;1.00
9167;DHT22;4618;48.818;9.088;2023-05-28T05:20:50;10.50;1.00
9167;DHT22;4618;48.818;9.088;2023-05-28T05:23:16;10.50;99.90
9167;DHT22;4618;48.818;9.088;2023-05-28T05:25:41;10.60;99.90
9167;DHT22;4618;48.818;9.088;2023-05-28T05:28:09;10.80;99.90
9167;DHT22;4618;48.818;9.088;2023-05-28T05:30:35;11.00;99.90
9167;DHT22;4618;48.818;9.088;2023-05-28T05:33:01;11.10;18.50
9167;DHT22;4618;48.818;9.088;2023-05-28T05:35:26;11.30;1.00
9167;DHT22;4618;48.818;9.088;2023-05-28T05:37:52;11.50;1.00
9167;DHT22;4618;48.818;9.088;2023-05-28T05:40:17;11.70;99.90
9167;DHT22;4618;48.818;9.088;2023-05-28T05:42:43;11.90;27.30
9167;DHT22;4618;48.818;9.088;2023-05-28T05:45:09;12.00;1.00
9167;DHT22;4618;48.818;9.088;2023-05-28T05:47:35;12.20;1.00
9167;DHT22;4618;48.818;9.088;2023-05-28T05:50:03;12.30;1.00
9167;DHT22;4618;48.818;9.088;2023-05-28T05:52:28;12.40;99.90
9167;DHT22;4618;48.818;9.088;2023-05-28T05:54:54;12.60;99.90
9167;DHT22;4618;48.818;9.088;2023-05-28T05:57:19;12.70;1.00
9167;DHT22;4618;48.818;9.088;2023-05-28T05:59:45;12.90;1.00
9167;DHT22;4618;48.818;9.088;2023-05-28T06:02:11;13.00;1.00
9167;DHT22;4618;48.818;9.088;2023-05-28T06:04:36;13.10;99.90
9167;DHT22;4618;48.818;9.088;2023-05-28T06:07:02;13.30;99.90
9167;DHT22;4618;48.818;9.088;2023-05-28T06:09:32;13.40;99.90
9167;DHT22;4618;48.818;9.088;2023-05-28T06:11:58;13.60;99.90
9167;DHT22;4618;48.818;9.088;2023-05-28T06:14:26;13.70;99.90
9167;DHT22;4618;48.818;9.088;2023-05-28T06:16:52;13.90;99.90
9167;DHT22;4618;48.818;9.088;2023-05-28T06:19:17;14.00;99.90
9167;DHT22;4618;48.818;9.088;2023-05-28T06:21:43;13.90;46.60
9167;DHT22;4618;48.818;9.088;2023-05-28T06:24:09;14.10;1.00
9167;DHT22;4618;48.818;9.088;2023-05-28T06:26:34;14.20;1.00
9167;DHT22;4618;48.818;9.088;2023-05-28T06:29:00;14.30;1.00
9167;DHT22;4618;48.818;9.088;2023-05-28T06:31:25;14.40;1.00
9167;DHT22;4618;48.818;9.088;2023-05-28T06:33:51;14.60;1.00
9167;DHT22;4618;48.818;9.088;2023-05-28T06:36:17;14.80;1.00
9167;DHT22;4618;48.818;9.088;2023-05-28T06:38:43;14.90;1.00
9167;DHT22;4618;48.818;9.088;2023-05-28T06:41:08;15.10;1.00
9167;DHT22;4618;48.818;9.088;2023-05-28T06:46:00;15.40;1.00
9167;DHT22;4618;48.818;9.088;2023-05-28T06:48:26;15.60;1.00
9167;DHT22;4618;48.818;9.088;2023-05-28T06:50:51;15.70;1.00
9167;DHT22;4618;48.818;9.088;2023-05-28T06:53:18;15.80;1.00
9167;DHT22;4618;48.818;9.088;2023-05-28T06:55:43;16.00;1.00
9167;DHT22;4618;48.818;9.088;2023-05-28T06:58:09;16.00;1.00
9167;DHT22;4618;48.818;9.088;2023-05-28T07:00:35;16.10;1.00
9167;DHT22;4618;48.818;9.088;2023-05-28T07:03:00;16.30;1.00
9167;DHT22;4618;48.818;9.088;2023-05-28T07:10:18;16.60;1.00
9167;DHT22;4618;48.818;9.088;2023-05-28T07:12:43;16.80;1.00
9167;DHT22;4618;48.818;9.088;2023-05-28T07:15:09;16.90;1.00
9167;DHT22;4618;48.818;9.088;2023-05-28T07:20:01;16.80;1.00
9167;DHT22;4618;48.818;9.088;2023-05-28T07:22:29;17.30;1.00
9167;DHT22;4618;48.818;9.088;2023-05-28T07:24:55;17.70;1.00
9167;DHT22;4618;48.818;9.088;2023-05-28T07:27:20;17.90;1.00
9167;DHT22;4618;48.818;9.088;2023-05-28T07:29:46;18.30;1.00
9167;DHT22;4618;48.818;9.088;2023-05-28T07:32:11;18.70;1.00
9167;DHT22;4618;48.818;9.088;2023-05-28T07:41:56;20.30;99.90
9167;DHT22;4618;48.818;9.088;2023-05-28T07:44:22;20.10;99.90
9167;DHT22;4618;48.818;9.088;2023-05-28T07:54:05;22.40;1.00
9167;DHT22;4618;48.818;9.088;2023-05-28T07:56:31;22.30;1.00
9167;DHT22;4618;48.818;9.088;2023-05-28T08:18:30;25.30;99.90
9167;DHT22;4618;48.818;9.088;2023-05-28T08:20:56;24.80;99.90
9167;DHT22;4618;48.818;9.088;2023-05-28T08:23:21;25.00;99.90
9167;DHT22;4618;48.818;9.088;2023-05-28T08:25:47;25.00;99.90
9167;DHT22;4618;48.818;9.088;2023-05-28T08:28:13;25.20;99.90
9167;DHT22;4618;48.818;9.088;2023-05-28T08:30:39;25.50;1.00
9167;DHT22;4618;48.818;9.088;2023-05-28T08:33:04;25.10;1.00
9167;DHT22;4618;48.818;9.088;2023-05-28T08:40:22;26.90;1.00
9167;DHT22;4618;48.818;9.088;2023-05-28T08:45:14;27.60;99.90
9167;DHT22;4618;48.818;9.088;2023-05-28T08:47:40;27.90;99.90
9167;DHT22;4618;48.818;9.088;2023-05-28T08:50:07;28.10;99.90
9167;DHT22;4618;48.818;9.088;2023-05-28T08:52:34;28.00;99.90
9167;DHT22;4618;48.818;9.088;2023-05-28T08:55:01;27.90;99.90
9167;DHT22;4618;48.818;9.088;2023-05-28T08:57:31;27.20;99.90
9167;DHT22;4618;48.818;9.088;2023-05-28T08:59:58;27.50;99.90
9167;DHT22;4618;48.818;9.088;2023-05-28T09:02:26;27.60;99.90
9167;DHT22;4618;48.818;9.088;2023-05-28T09:04:51;27.90;99.90
9167;DHT22;4618;48.818;9.088;2023-05-28T09:09:44;28.50;99.90
9167;DHT22;4618;48.818;9.088;2023-05-28T09:12:13;28.50;99.90
9167;DHT22;4618;48.818;9.088;2023-05-28T09:17:09;28.40;99.90
9167;DHT22;4618;48.818;9.088;2023-05-28T09:22:01;28.50;99.90
9167;DHT22;4618;48.818;9.088;2023-05-28T09:24:29;28.60;99.90
9167;DHT22;4618;48.818;9.088;2023-05-28T09:26:56;28.80;99.90
9167;DHT22;4618;48.818;9.088;2023-05-28T09:29:23;29.10;99.90
9167;DHT22;4618;48.818;9.088;2023-05-28T09:31:57;29.30;99.90
9167;DHT22;4618;48.818;9.088;2023-05-28T09:34:30;29.10;99.90
9167;DHT22;4618;48.818;9.088;2023-05-28T09:37:03;29.00;1.00
9167;DHT22;4618;48.818;9.088;2023-05-28T09:39:29;29.10;1.00
9167;DHT22;4618;48.818;9.088;2023-05-28T09:52:04;29.30;99.90
9167;DHT22;4618;48.818;9.088;2023-05-28T10:04:35;29.90;1.00
9167;DHT22;4618;48.818;9.088;2023-05-28T10:07:05;29.90;1.00
9167;DHT22;4618;48.818;9.088;2023-05-28T10:09:32;30.30;1.00
9167;DHT22;4618;48.818;9.088;2023-05-28T10:12:09;30.80;1.00
9167;DHT22;4618;48.818;9.088;2023-05-28T10:24:22;31.80;99.90
9167;DHT22;4618;48.818;9.088;2023-05-28T10:31:39;31.60;99.90
9167;DHT22;4618;48.818;9.088;2023-05-28T10:34:17;31.10;1.00
9167;DHT22;4618;48.818;9.088;2023-05-28T10:39:16;31.50;1.00
9167;DHT22;4618;48.818;9.088;2023-05-28T10:41:42;31.60;1.00
9167;DHT22;4618;48.818;9.088;2023-05-28T10:44:07;31.90;1.00
9167;DHT22;4618;48.818;9.088;2023-05-28T10:49:15;32.30;5.20
9167;DHT22;4618;48.818;9.088;2023-05-28T10:51:58;32.70;99.90
9167;DHT22;4618;48.818;9.088;2023-05-28T10:57:10;32.30;1.00
9167;DHT22;4618;48.818;9.088;2023-05-28T10:59:51;33.60;1.00
9167;DHT22;4618;48.818;9.088;2023-05-28T11:02:28;33.80;99.90
9167;DHT22;4618;48.818;9.088;2023-05-28T11:04:58;33.90;99.90
9167;DHT22;4618;48.818;9.088;2023-05-28T11:07:34;34.10;1.00
9167;DHT22;4618;48.818;9.088;2023-05-28T11:10:02;33.60;1.00
9167;DHT22;4618;48.818;9.088;2023-05-28T11:12:30;34.00;1.00
9167;DHT22;4618;48.818;9.088;2023-05-28T11:14:56;34.20;1.00
9167;DHT22;4618;48.818;9.088;2023-05-28T11:17:22;34.10;1.00
9167;DHT22;4618;48.818;9.088;2023-05-28T11:19:50;33.10;1.00
9167;DHT22;4618;48.818;9.088;2023-05-28T11:22:16;33.70;1.00
9167;DHT22;4618;48.818;9.088;2023-05-28T11:24:55;33.00;1.00
9167;DHT22;4618;48.818;9.088;2023-05-28T11:29:52;35.40;1.00
9167;DHT22;4618;48.818;9.088;2023-05-28T11:34:47;35.70;1.00
9167;DHT22;4618;48.818;9.088;2023-05-28T11:37:13;35.70;1.00
9167;DHT22;4618;48.818;9.088;2023-05-28T11:42:13;35.50;1.00
9167;DHT22;4618;48.818;9.088;2023-05-28T11:47:09;34.90;99.90
9167;DHT22;4618;48.818;9.088;2023-05-28T11:49:36;34.90;99.90
9167;DHT22;4618;48.818;9.088;2023-05-28T11:52:02;34.50;99.90
9167;DHT22;4618;48.818;9.088;2023-05-28T11:54:28;34.20;99.90
9167;DHT22;4618;48.818;9.088;2023-05-28T12:01:52;34.20;1.00
9167;DHT22;4618;48.818;9.088;2023-05-28T12:04:22;34.20;1.00
9167;DHT22;4618;48.818;9.088;2023-05-28T12:06:53;34.70;1.00
9167;DHT22;4618;48.818;9.088;2023-05-28T12:12:04;34.30;1.00
9167;DHT22;4618;48.818;9.088;2023-05-28T12:14:31;35.00;99.90
9167;DHT22;4618;48.818;9.088;2023-05-28T12:17:09;35.80;1.00
9167;DHT22;4618;48.818;9.088;2023-05-28T12:24:28;36.20;99.90
9167;DHT22;4618;48.818;9.088;2023-05-28T12:26:54;36.20;1.00
9167;DHT22;4618;48.818;9.088;2023-05-28T12:29:19;36.60;1.00
9167;DHT22;4618;48.818;9.088;2023-05-28T12:31:45;36.30;1.00
9167;DHT22;4618;48.818;9.088;2023-05-28T12:36:37;34.90;1.00
9167;DHT22;4618;48.818;9.088;2023-05-28T12:39:03;35.10;1.00
9167;DHT22;4618;48.818;9.088;2023-05-28T12:41:30;35.90;1.00
9167;DHT22;4618;48.818;9.088;2023-05-28T12:43:56;35.70;1.00
9167;DHT22;4618;48.818;9.088;2023-05-28T12:46:21;35.70;1.00
9167;DHT22;4618;48.818;9.088;2023-05-28T12:48:47;34.90;1.00
9167;DHT22;4618;48.818;9.088;2023-05-28T12:51:13;35.00;1.00
9167;DHT22;4618;48.818;9.088;2023-05-28T12:53:39;34.90;1.00
9167;DHT22;4618;48.818;9.088;2023-05-28T12:56:05;35.20;1.00
9167;DHT22;4618;48.818;9.088;2023-05-28T12:58:30;35.50;1.00
9167;DHT22;4618;48.818;9.088;2023-05-28T13:00:56;36.10;1.00
9167;DHT22;4618;48.818;9.088;2023-05-28T13:03:21;36.60;1.00
9167;DHT22;4618;48.818;9.088;2023-05-28T13:05:47;36.90;1.00
9167;DHT22;4618;48.818;9.088;2023-05-28T13:08:12;36.90;1.00
9167;DHT22;4618;48.818;9.088;2023-05-28T13:10:38;36.90;1.00
9167;DHT22;4618;48.818;9.088;2023-05-28T13:13:03;37.20;1.70
9167;DHT22;4618;48.818;9.088;2023-05-28T13:15:29;36.20;1.00
9167;DHT22;4618;48.818;9.088;2023-05-28T13:17:55;36.00;1.00
9167;DHT22;4618;48.818;9.088;2023-05-28T13:20:22;36.30;1.00
9167;DHT22;4618;48.818;9.088;2023-05-28T13:22:48;36.60;1.00
9167;DHT22;4618;48.818;9.088;2023-05-28T13:25:13;36.10;1.00
9167;DHT22;4618;48.818;9.088;2023-05-28T13:27:39;35.60;1.00
9167;DHT22;4618;48.818;9.088;2023-05-28T13:30:06;36.00;1.00
9167;DHT22;4618;48.818;9.088;2023-05-28T13:32:31;35.90;1.00
9167;DHT22;4618;48.818;9.088;2023-05-28T13:34:57;35.70;1.00
9167;DHT22;4618;48.818;9.088;2023-05-28T13:37:23;35.80;1.00
9167;DHT22;4618;48.818;9.088;2023-05-28T13:39:48;36.00;1.00
9167;DHT22;4618;48.818;9.088;2023-05-28T13:42:14;36.60;1.00
9167;DHT22;4618;48.818;9.088;2023-05-28T13:44:45;37.00;1.00
9167;DHT22;4618;48.818;9.088;2023-05-28T13:47:11;36.80;1.00
9167;DHT22;4618;48.818;9.088;2023-05-28T13:49:37;37.00;1.00
9167;DHT22;4618;48.818;9.088;2023-05-28T13:52:02;36.20;1.00
9167;DHT22;4618;48.818;9.088;2023-05-28T13:54:28;35.80;1.00
9167;DHT22;4618;48.818;9.088;2023-05-28T13:56:53;35.70;1.00
9167;DHT22;4618;48.818;9.088;2023-05-28T13:59:19;35.50;1.00
9167;DHT22;4618;48.818;9.088;2023-05-28T14:01:44;36.10;1.00
9167;DHT22;4618;48.818;9.088;2023-05-28T14:04:11;36.20;1.00
9167;DHT22;4618;48.818;9.088;2023-05-28T14:06:37;36.30;1.00
9167;DHT22;4618;48.818;9.088;2023-05-28T14:09:02;36.20;1.00
9167;DHT22;4618;48.818;9.088;2023-05-28T14:11:30;36.50;1.00
9167;DHT22;4618;48.818;9.088;2023-05-28T14:13:55;36.70;1.00
9167;DHT22;4618;48.818;9.088;2023-05-28T14:16:21;36.20;1.00
9167;DHT22;4618;48.818;9.088;2023-05-28T14:18:46;35.60;1.00
9167;DHT22;4618;48.818;9.088;2023-05-28T14:21:12;35.80;1.00
9167;DHT22;4618;48.818;9.088;2023-05-28T14:23:37;35.80;1.00
9167;DHT22;4618;48.818;9.088;2023-05-28T14:26:03;35.30;1.00
9167;DHT22;4618;48.818;9.088;2023-05-28T14:28:29;35.60;1.00
9167;DHT22;4618;48.818;9.088;2023-05-28T14:30:54;35.80;1.00
9167;DHT22;4618;48.818;9.088;2023-05-28T14:33:20;35.50;1.00
9167;DHT22;4618;48.818;9.088;2023-05-28T14:35:46;35.90;1.00
9167;DHT22;4618;48.818;9.088;2023-05-28T14:38:12;36.10;1.00
9167;DHT22;4618;48.818;9.088;2023-05-28T14:40:37;35.60;1.00
9167;DHT22;4618;48.818;9.088;2023-05-28T14:43:03;34.80;1.00
9167;DHT22;4618;48.818;9.088;2023-05-28T14:45:28;34.60;1.00
9167;DHT22;4618;48.818;9.088;2023-05-28T14:47:54;34.50;1.00
9167;DHT22;4618;48.818;9.088;2023-05-28T14:50:20;34.00;1.00
9167;DHT22;4618;48.818;9.088;2023-05-28T14:52:45;34.10;1.00
9167;DHT22;4618;48.818;9.088;2023-05-28T14:55:11;34.50;1.00
9167;DHT22;4618;48.818;9.088;2023-05-28T14:57:37;35.00;1.00
9167;DHT22;4618;48.818;9.088;2023-05-28T15:02:33;34.30;99.90
9167;DHT22;4618;48.818;9.088;2023-05-28T15:04:59;34.00;1.00
9167;DHT22;4618;48.818;9.088;2023-05-28T15:17:09;33.70;57.60
9167;DHT22;4618;48.818;9.088;2023-05-28T15:26:53;33.50;99.90
9167;DHT22;4618;48.818;9.088;2023-05-28T15:34:14;32.30;99.90
9167;DHT22;4618;48.818;9.088;2023-05-28T15:36:40;32.10;99.90
9167;DHT22;4618;48.818;9.088;2023-05-28T15:39:06;32.00;99.90
9167;DHT22;4618;48.818;9.088;2023-05-28T15:41:33;31.90;99.90
9167;DHT22;4618;48.818;9.088;2023-05-28T15:44:00;31.60;99.90
9167;DHT22;4618;48.818;9.088;2023-05-28T15:46:26;31.70;99.90
9167;DHT22;4618;48.818;9.088;2023-05-28T15:48:51;31.70;99.90
9167;DHT22;4618;48.818;9.088;2023-05-28T15:51:18;31.50;99.90
9167;DHT22;4618;48.818;9.088;2023-05-28T15:53:43;31.50;99.90
9167;DHT22;4618;48.818;9.088;2023-05-28T15:56:10;31.40;1.00
9167;DHT22;4618;48.818;9.088;2023-05-28T16:01:02;31.10;99.90
9167;DHT22;4618;48.818;9.088;2023-05-28T16:06:00;30.40;1.00
9167;DHT22;4618;48.818;9.088;2023-05-28T16:08:26;30.40;1.00
9167;DHT22;4618;48.818;9.088;2023-05-28T16:10:52;30.30;1.00
9167;DHT22;4618;48.818;9.088;2023-05-28T16:13:25;30.10;1.00
9167;DHT22;4618;48.818;9.088;2023-05-28T16:15:52;30.10;1.00
9167;DHT22;4618;48.818;9.088;2023-05-28T16:18:19;30.50;1.00
9167;DHT22;4618;48.818;9.088;2023-05-28T16:20:45;30.30;1.00
9167;DHT22;4618;48.818;9.088;2023-05-28T16:23:11;30.30;1.00
9167;DHT22;4618;48.818;9.088;2023-05-28T16:25:37;30.10;1.00
9167;DHT22;4618;48.818;9.088;2023-05-28T16:28:03;29.90;1.00
9167;DHT22;4618;48.818;9.088;2023-05-28T16:30:29;30.20;1.00
9167;DHT22;4618;48.818;9.088;2023-05-28T16:32:55;30.40;1.00
9167;DHT22;4618;48.818;9.088;2023-05-28T16:35:23;30.40;1.00
9167;DHT22;4618;48.818;9.088;2023-05-28T16:37:49;30.20;1.00
9167;DHT22;4618;48.818;9.088;2023-05-28T16:40:15;29.90;1.00
9167;DHT22;4618;48.818;9.088;2023-05-28T16:42:41;30.20;1.00
9167;DHT22;4618;48.818;9.088;2023-05-28T16:45:09;30.30;1.00
9167;DHT22;4618;48.818;9.088;2023-05-28T16:47:35;30.10;1.00
9167;DHT22;4618;48.818;9.088;2023-05-28T16:50:02;29.40;1.00
9167;DHT22;4618;48.818;9.088;2023-05-28T16:52:28;29.30;1.00
9167;DHT22;4618;48.818;9.088;2023-05-28T16:54:54;29.20;1.00
9167;DHT22;4618;48.818;9.088;2023-05-28T16:57:24;29.50;1.00
9167;DHT22;4618;48.818;9.088;2023-05-28T16:59:50;29.30;1.00
9167;DHT22;4618;48.818;9.088;2023-05-28T17:02:16;29.30;1.00
9167;DHT22;4618;48.818;9.088;2023-05-28T17:04:42;29.00;1.00
9167;DHT22;4618;48.818;9.088;2023-05-28T17:07:08;28.80;1.00
9167;DHT22;4618;48.818;9.088;2023-05-28T17:09:34;28.90;1.00
9167;DHT22;4618;48.818;9.088;2023-05-28T17:11:59;29.10;1.00
9167;DHT22;4618;48.818;9.088;2023-05-28T17:14:26;28.90;1.00
9167;DHT22;4618;48.818;9.088;2023-05-28T17:16:52;28.70;1.00
9167;DHT22;4618;48.818;9.088;2023-05-28T17:19:19;28.40;1.00
9167;DHT22;4618;48.818;9.088;2023-05-28T17:21:45;28.30;1.00
9167;DHT22;4618;48.818;9.088;2023-05-28T17:24:11;28.20;1.00
9167;DHT22;4618;48.818;9.088;2023-05-28T17:26:37;28.10;1.00
9167;DHT22;4618;48.818;9.088;2023-05-28T17:29:04;28.00;1.00
9167;DHT22;4618;48.818;9.088;2023-05-28T17:31:30;27.80;1.00
9167;DHT22;4618;48.818;9.088;2023-05-28T17:33:55;28.00;1.00
9167;DHT22;4618;48.818;9.088;2023-05-28T17:36:21;28.00;1.00
9167;DHT22;4618;48.818;9.088;2023-05-28T17:38:47;27.50;1.00
9167;DHT22;4618;48.818;9.088;2023-05-28T17:41:12;27.40;1.00
9167;DHT22;4618;48.818;9.088;2023-05-28T17:43:39;27.20;1.00
9167;DHT22;4618;48.818;9.088;2023-05-28T17:46:05;27.10;1.00
9167;DHT22;4618;48.818;9.088;2023-05-28T17:48:31;26.80;1.00
9167;DHT22;4618;48.818;9.088;2023-05-28T17:50:58;26.50;1.00
9167;DHT22;4618;48.818;9.088;2023-05-28T17:53:24;26.40;1.00
9167;DHT22;4618;48.818;9.088;2023-05-28T17:55:51;26.60;1.00
9167;DHT22;4618;48.818;9.088;2023-05-28T17:58:20;26.70;1.00
9167;DHT22;4618;48.818;9.088;2023-05-28T18:00:46;26.50;1.00
9167;DHT22;4618;48.818;9.088;2023-05-28T18:03:12;26.30;1.00
9167;DHT22;4618;48.818;9.088;2023-05-28T18:05:38;26.10;1.00
9167;DHT22;4618;48.818;9.088;2023-05-28T18:08:03;25.80;1.00
9167;DHT22;4618;48.818;9.088;2023-05-28T18:10:30;25.50;1.00
9167;DHT22;4618;48.818;9.088;2023-05-28T18:12:55;25.50;1.00
9167;DHT22;4618;48.818;9.088;2023-05-28T18:15:23;25.30;1.00
9167;DHT22;4618;48.818;9.088;2023-05-28T18:17:51;25.20;1.00
9167;DHT22;4618;48.818;9.088;2023-05-28T18:20:16;25.10;1.00
9167;DHT22;4618;48.818;9.088;2023-05-28T18:22:42;24.80;1.00
9167;DHT22;4618;48.818;9.088;2023-05-28T18:25:08;24.90;1.00
9167;DHT22;4618;48.818;9.088;2023-05-28T18:27:33;24.70;1.00
9167;DHT22;4618;48.818;9.088;2023-05-28T18:29:59;24.50;1.00
9167;DHT22;4618;48.818;9.088;2023-05-28T18:32:28;24.10;1.00
9167;DHT22;4618;48.818;9.088;2023-05-28T18:34:54;23.90;1.00
9167;DHT22;4618;48.818;9.088;2023-05-28T18:37:20;23.60;1.00
9167;DHT22;4618;48.818;9.088;2023-05-28T18:39:45;23.60;1.00
9167;DHT22;4618;48.818;9.088;2023-05-28T18:42:12;23.30;1.00
9167;DHT22;4618;48.818;9.088;2023-05-28T18:44:37;23.10;1.00
9167;DHT22;4618;48.818;9.088;2023-05-28T18:47:06;23.00;1.00
9167;DHT22;4618;48.818;9.088;2023-05-28T18:49:32;22.80;1.00
9167;DHT22;4618;48.818;9.088;2023-05-28T18:52:00;22.30;1.00
9167;DHT22;4618;48.818;9.088;2023-05-28T18:54:28;22.10;1.00
9167;DHT22;4618;48.818;9.088;2023-05-28T18:56:53;21.70;1.00
9167;DHT22;4618;48.818;9.088;2023-05-28T18:59:19;21.50;1.00
9167;DHT22;4618;48.818;9.088;2023-05-28T19:01:44;21.20;1.00
9167;DHT22;4618;48.818;9.088;2023-05-28T19:04:10;20.90;1.00
9167;DHT22;4618;48.818;9.088;2023-05-28T19:06:36;20.60;1.00
9167;DHT22;4618;48.818;9.088;2023-05-28T19:09:04;20.30;1.00
9167;DHT22;4618;48.818;9.088;2023-05-28T19:11:30;19.90;1.00
9167;DHT22;4618;48.818;9.088;2023-05-28T19:13:55;19.70;10.70
9167;DHT22;4618;48.818;9.088;2023-05-28T19:16:21;19.50;1.00
9167;DHT22;4618;48.818;9.088;2023-05-28T19:18:47;19.40;1.00
9167;DHT22;4618;48.818;9.088;2023-05-28T19:21:12;19.20;96.40
9167;DHT22;4618;48.818;9.088;2023-05-28T19:23:38;19.20;1.00
9167;DHT22;4618;48.818;9.088;2023-05-28T19:26:04;19.00;1.00
9167;DHT22;4618;48.818;9.088;2023-05-28T19:28:32;18.70;1.00
9167;DHT22;4618;48.818;9.088;2023-05-28T19:30:59;18.80;1.00
9167;DHT22;4618;48.818;9.088;2023-05-28T19:33:25;18.60;99.90
9167;DHT22;4618;48.818;9.088;2023-05-28T19:35:51;18.50;99.90
9167;DHT22;4618;48.818;9.088;2023-05-28T19:38:20;18.50;99.90
9167;DHT22;4618;48.818;9.088;2023-05-28T19:40:45;18.40;99.90
9167;DHT22;4618;48.818;9.088;2023-05-28T19:43:11;18.30;99.90
9167;DHT22;4618;48.818;9.088;2023-05-28T19:45:36;18.20;99.90
9167;DHT22;4618;48.818;9.088;2023-05-28T19:48:02;18.50;99.90
9167;DHT22;4618;48.818;9.088;2023-05-28T19:50:28;18.10;99.90
9167;DHT22;4618;48.818;9.088;2023-05-28T20:00:13;17.90;19.00
9167;DHT22;4618;48.818;9.088;2023-05-28T20:02:39;17.60;99.90
9167;DHT22;4618;48.818;9.088;2023-05-28T20:05:05;17.20;99.90
9167;DHT22;4618;48.818;9.088;2023-05-28T20:07:32;17.40;99.90
9167;DHT22;4618;48.818;9.088;2023-05-28T20:09:57;17.40;1.00
9167;DHT22;4618;48.818;9.088;2023-05-28T20:12:24;17.40;1.00
9167;DHT22;4618;48.818;9.088;2023-05-28T20:14:50;17.40;36.60
9167;DHT22;4618;48.818;9.088;2023-05-28T20:22:10;17.00;99.90
9167;DHT22;4618;48.818;9.088;2023-05-28T20:27:03;17.00;99.90
9167;DHT22;4618;48.818;9.088;2023-05-28T20:29:33;16.90;1.00
9167;DHT22;4618;48.818;9.088;2023-05-28T20:32:00;17.00;1.00
9167;DHT22;4618;48.818;9.088;2023-05-28T20:34:25;17.00;1.00
9167;DHT22;4618;48.818;9.088;2023-05-28T20:36:51;17.10;1.00
9167;DHT22;4618;48.818;9.088;2023-05-28T20:39:17;17.10;1.00
9167;DHT22;4618;48.818;9.088;2023-05-28T20:41:43;17.00;99.90
9167;DHT22;4618;48.818;9.088;2023-05-28T20:44:13;16.90;99.90
9167;DHT22;4618;48.818;9.088;2023-05-28T20:46:42;16.70;99.90
9167;DHT22;4618;48.818;9.088;2023-05-28T20:49:09;16.60;1.00
9167;DHT22;4618;48.818;9.088;2023-05-28T20:51:35;16.60;99.90
9167;DHT22;4618;48.818;9.088;2023-05-28T20:54:01;16.40;99.90
9167;DHT22;4618;48.818;9.088;2023-05-28T20:56:28;16.40;99.90
9167;DHT22;4618;48.818;9.088;2023-05-28T20:58:54;16.40;99.90
9167;DHT22;4618;48.818;9.088;2023-05-28T21:01:23;16.30;99.90
9167;DHT22;4618;48.818;9.088;2023-05-28T21:03:49;16.00;99.90